Time;durP1;ratioP1;P1;durP2;ratioP2;P2;SDS_P1;SDS_P2;PMS_P1;PMS_P2;Temp;Humidity;BMP_temperature;BMP_pressure;BME280_temperature;BME280_humidity;BME280_pressure;Samples;Min_cycle;Max_cycle;Signal;HPM_P1;HPM_P2
2022/01/19 00:00:31;;;;;;;2.70;2.50;;;7.10;74.10;;;;;;4921761;29;20461;-51
2022/01/19 00:02:58;;;;;;;2.10;2.00;;;7.10;74.40;;;;;;4924641;29;20464;-51
2022/01/19 00:05:25;;;;;;;2.93;2.27;;;7.00;74.40;;;;;;4925505;29;20499;-51
2022/01/19 00:07:52;;;;;;;3.30;2.37;;;7.00;74.30;;;;;;4909202;29;20464;-51
2022/01/19 00:10:26;;;;;;;2.43;2.23;;;7.00;74.30;;;;;;4927004;29;20471;-52
2022/01/19 00:12:58;;;;;;;3.00;2.40;;;7.00;74.30;;;;;;4911857;29;20465;-52
2022/01/19 00:15:26;;;;;;;3.60;2.43;;;7.00;74.30;;;;;;4912070;29;20488;-52
2022/01/19 00:17:58;;;;;;;2.80;2.33;;;7.00;74.10;;;;;;4925670;29;20465;-52
2022/01/19 00:20:28;;;;;;;2.83;2.20;;;7.00;74.40;;;;;;4925582;29;21033;-51
2022/01/19 00:22:55;;;;;;;2.37;2.17;;;6.90;74.50;;;;;;4924603;29;20480;-51
2022/01/19 00:25:21;;;;;;;2.30;2.20;;;7.00;74.10;;;;;;4924624;29;20457;-51
2022/01/19 00:27:49;;;;;;;2.80;2.47;;;6.90;74.00;;;;;;4923560;29;21345;-51
2022/01/19 00:30:17;;;;;;;2.63;2.43;;;6.90;74.10;;;;;;4941257;29;20456;-51
2022/01/19 00:32:43;;;;;;;2.30;2.10;;;6.90;74.00;;;;;;4913310;29;20472;-51
2022/01/19 00:35:11;;;;;;;2.17;1.97;;;6.90;74.40;;;;;;4924699;29;20460;-51
2022/01/19 00:37:41;;;;;;;2.60;2.40;;;6.90;74.60;;;;;;4923715;29;20834;-52
2022/01/19 00:40:10;;;;;;;3.17;2.30;;;6.90;74.30;;;;;;4910198;29;20468;-51
2022/01/19 00:42:37;;;;;;;2.20;2.03;;;6.90;74.10;;;;;;4925603;29;20464;-51
2022/01/19 00:45:05;;;;;;;2.63;2.43;;;6.90;74.20;;;;;;4923785;29;20555;-51
2022/01/19 00:47:32;;;;;;;2.23;2.10;;;6.90;74.00;;;;;;4921826;29;20465;-51
2022/01/19 00:49:59;;;;;;;2.40;2.20;;;6.90;73.90;;;;;;4925091;29;20457;-51
2022/01/19 00:52:26;;;;;;;2.23;2.10;;;6.90;74.00;;;;;;4928923;29;20463;-50
2022/01/19 00:54:53;;;;;;;2.33;2.23;;;6.90;74.10;;;;;;4927352;29;20582;-51
2022/01/19 00:57:20;;;;;;;2.53;2.33;;;6.90;74.00;;;;;;4923919;29;20490;-51
2022/01/19 00:59:46;;;;;;;2.23;2.07;;;6.80;74.20;;;;;;4922198;29;20556;-51
2022/01/19 01:02:13;;;;;;;2.70;2.50;;;6.90;74.20;;;;;;4911788;29;20465;-51
2022/01/19 01:04:40;;;;;;;3.00;2.27;;;6.90;74.30;;;;;;4924740;29;20922;-52
2022/01/19 01:07:07;;;;;;;2.43;2.23;;;6.90;74.40;;;;;;4921822;29;20468;-51
2022/01/19 01:09:33;;;;;;;2.90;2.70;;;6.90;74.50;;;;;;4922757;29;20578;-50
2022/01/19 01:12:12;;;;;;;2.97;2.67;;;6.90;74.10;;;;;;4923943;29;20482;-51
2022/01/19 01:20:12;;;;;;;3.33;3.10;;;6.80;74.50;;;;;;4925893;29;20969;-51
2022/01/19 01:22:40;;;;;;;2.80;2.50;;;6.80;74.70;;;;;;4941187;28;20483;-51
2022/01/19 01:25:07;;;;;;;2.87;2.67;;;6.80;74.50;;;;;;4921621;29;20957;-51
2022/01/19 01:27:35;;;;;;;3.20;2.90;;;6.80;74.50;;;;;;4923656;29;20815;-51
2022/01/19 01:30:04;;;;;;;4.33;2.73;;;6.80;74.40;;;;;;4925050;29;20834;-51
2022/01/19 01:32:30;;;;;;;3.00;2.77;;;6.80;74.50;;;;;;4907167;29;20539;-50
2022/01/19 01:34:57;;;;;;;2.93;2.73;;;6.80;74.60;;;;;;4922538;29;20496;-50
2022/01/19 01:37:24;;;;;;;3.23;2.93;;;6.80;74.70;;;;;;4921202;29;20464;-50
2022/01/19 01:39:51;;;;;;;3.23;2.93;;;6.80;75.00;;;;;;4923570;29;20462;-50
2022/01/19 01:42:20;;;;;;;2.83;2.50;;;6.80;75.00;;;;;;4910875;29;20471;-50
2022/01/19 01:44:50;;;;;;;3.40;2.70;;;6.80;75.00;;;;;;4913245;29;20464;-51
2022/01/19 01:47:19;;;;;;;3.20;3.00;;;6.80;74.90;;;;;;4923269;29;20483;-51
2022/01/19 01:55:17;;;;;;;2.57;2.40;;;6.80;74.70;;;;;;4923088;29;20495;-51
2022/01/19 01:57:44;;;;;;;2.60;2.43;;;6.80;74.50;;;;;;4921044;29;20460;-51
2022/01/19 02:00:14;;;;;;;2.70;2.50;;;6.80;74.60;;;;;;4923434;29;20456;-51
2022/01/19 02:02:41;;;;;;;3.73;2.47;;;6.80;74.70;;;;;;4909725;29;21127;-52
2022/01/19 02:05:10;;;;;;;2.70;2.50;;;6.80;75.10;;;;;;4923068;29;20476;-52
2022/01/19 02:08:09;;;;;;;3.03;2.60;;;6.80;74.80;;;;;;4922188;29;20472;-52
2022/01/19 02:11:04;;;;;;;3.30;3.00;;;6.70;75.10;;;;;;4923361;29;20464;-51
2022/01/19 02:21:58;;;;;;;2.00;1.90;;;6.70;75.10;;;;;;4922207;29;20466;-51
2022/01/19 02:24:32;;;;;;;2.83;2.63;;;6.70;75.10;;;;;;4919495;29;20515;-51
2022/01/19 02:40:30;;;;;;;2.60;2.47;;;6.70;74.90;;;;;;4922549;29;20459;-51
2022/01/19 02:51:11;;;;;;;2.73;2.53;;;6.70;74.90;;;;;;4920382;29;20878;-51
2022/01/19 02:53:38;;;;;;;2.63;2.40;;;6.70;74.80;;;;;;4921727;29;20508;-51
2022/01/19 02:56:10;;;;;;;3.07;2.80;;;6.70;74.70;;;;;;4921444;29;20484;-51
2022/01/19 02:58:50;;;;;;;4.20;2.33;;;6.70;74.90;;;;;;4926201;29;20911;-51
2022/01/19 03:09:28;;;;;;;2.67;2.30;;;6.70;74.80;;;;;;4921314;29;20526;-51
2022/01/19 03:11:56;;;;;;;2.20;2.00;;;6.70;74.90;;;;;;4924788;29;20451;-51
2022/01/19 03:14:23;;;;;;;3.60;2.63;;;6.70;75.10;;;;;;4922034;29;20488;-51
2022/01/19 03:16:50;;;;;;;3.43;3.10;;;6.60;74.90;;;;;;4925237;29;20555;-50
2022/01/19 03:19:17;;;;;;;2.20;1.83;;;6.60;75.00;;;;;;4923760;29;20460;-51
2022/01/19 03:21:44;;;;;;;2.97;2.67;;;6.60;75.10;;;;;;4922705;29;20468;-51
2022/01/19 03:24:12;;;;;;;3.20;2.60;;;6.60;75.20;;;;;;4918707;29;20574;-51
2022/01/19 03:26:39;;;;;;;3.87;2.80;;;6.60;75.20;;;;;;4918954;29;20555;-52
2022/01/19 03:29:06;;;;;;;2.83;2.63;;;6.60;75.10;;;;;;4924095;29;20460;-48
2022/01/19 03:31:33;;;;;;;2.67;2.27;;;6.60;75.00;;;;;;4921813;29;20469;-48
2022/01/19 03:34:01;;;;;;;2.40;2.20;;;6.50;75.20;;;;;;4920855;29;20492;-48
2022/01/19 03:36:28;;;;;;;2.50;2.30;;;6.50;75.20;;;;;;4923658;29;20488;-49
2022/01/19 03:38:55;;;;;;;2.80;2.60;;;6.60;75.20;;;;;;4908307;29;20465;-48
2022/01/19 03:41:22;;;;;;;3.67;2.50;;;6.60;75.20;;;;;;4921819;29;20951;-49
2022/01/19 03:43:49;;;;;;;2.60;2.40;;;6.60;75.20;;;;;;4918726;29;21001;-48
2022/01/19 03:46:16;;;;;;;2.63;2.43;;;6.60;75.30;;;;;;4910662;29;20493;-48
2022/01/19 03:48:54;;;;;;;2.60;2.40;;;6.60;75.60;;;;;;4912406;29;20488;-48
2022/01/19 03:51:21;;;;;;;3.50;3.20;;;6.60;75.70;;;;;;4922627;29;20447;-48
2022/01/19 03:53:48;;;;;;;2.37;2.17;;;6.60;75.20;;;;;;4924856;29;20455;-48
2022/01/19 03:56:18;;;;;;;6.83;2.80;;;6.60;75.10;;;;;;4908170;29;20830;-48
2022/01/19 03:58:45;;;;;;;2.80;2.60;;;6.50;75.10;;;;;;4923819;29;20984;-48
2022/01/19 04:01:13;;;;;;;2.37;2.23;;;6.50;75.10;;;;;;4919967;29;20966;-48
2022/01/19 04:06:24;;;;;;;3.10;2.43;;;6.50;75.50;;;;;;4924664;29;20459;-49
2022/01/19 04:08:51;;;;;;;3.40;2.93;;;6.50;75.30;;;;;;4925157;29;20835;-48
2022/01/19 04:11:20;;;;;;;3.23;2.57;;;6.50;75.30;;;;;;4924529;29;20556;-48
2022/01/19 04:16:23;;;;;;;3.30;3.00;;;6.40;75.80;;;;;;4925465;29;20468;-49
2022/01/19 04:18:58;;;;;;;5.90;3.00;;;6.40;75.70;;;;;;4926291;29;20470;-49
2022/01/19 04:21:25;;;;;;;2.40;2.20;;;6.30;76.00;;;;;;4923236;29;20452;-48
2022/01/19 04:23:52;;;;;;;3.17;2.87;;;6.30;76.10;;;;;;4925207;29;20489;-48
2022/01/19 04:26:19;;;;;;;4.60;3.67;;;6.30;76.40;;;;;;4924387;29;20456;-48
2022/01/19 04:28:46;;;;;;;5.03;3.57;;;6.20;76.30;;;;;;4924144;29;20461;-48
2022/01/19 04:31:12;;;;;;;3.77;3.30;;;6.20;76.40;;;;;;4925059;29;20472;-48
2022/01/19 04:33:43;;;;;;;5.27;3.20;;;6.20;76.40;;;;;;4930126;29;20464;-49
2022/01/19 04:36:36;;;;;;;7.70;3.80;;;6.10;76.40;;;;;;4924842;29;20497;-49
2022/01/19 04:39:19;;;;;;;3.60;2.87;;;6.10;76.50;;;;;;4925232;29;20456;-50
2022/01/19 04:44:54;;;;;;;4.60;3.10;;;5.90;76.70;;;;;;4904724;29;20463;-47
2022/01/19 05:06:20;;;;;;;4.83;3.43;;;5.70;77.70;;;;;;4923953;29;20468;-48
2022/01/19 05:14:09;;;;;;;4.53;4.10;;;5.70;77.70;;;;;;4924739;29;20461;-49
2022/01/19 05:16:36;;;;;;;5.17;4.10;;;5.70;77.70;;;;;;4923608;29;20461;-49
2022/01/19 05:19:03;;;;;;;4.43;3.80;;;5.70;77.70;;;;;;4924552;29;20966;-48
2022/01/19 05:21:30;;;;;;;3.83;3.43;;;5.70;77.80;;;;;;4925180;29;20460;-49
2022/01/19 05:24:03;;;;;;;4.70;3.70;;;5.60;78.00;;;;;;4921997;29;21093;-48
2022/01/19 05:26:35;;;;;;;3.60;3.30;;;5.70;78.20;;;;;;4914510;29;21103;-49
2022/01/19 05:29:02;;;;;;;4.03;3.30;;;5.70;78.10;;;;;;4921767;29;20460;-48
2022/01/19 05:31:29;;;;;;;5.23;3.57;;;5.60;78.10;;;;;;4937925;28;20471;-48
2022/01/19 05:33:56;;;;;;;4.83;3.83;;;5.70;78.20;;;;;;4926116;29;20461;-48
2022/01/19 05:36:23;;;;;;;4.30;3.43;;;5.70;78.20;;;;;;4922171;29;21280;-48
2022/01/19 05:38:50;;;;;;;4.53;4.10;;;5.70;78.50;;;;;;4918311;29;20495;-48
2022/01/19 05:41:16;;;;;;;4.13;3.73;;;5.80;78.30;;;;;;4921760;29;20811;-47
2022/01/19 05:43:44;;;;;;;4.30;3.83;;;5.80;78.30;;;;;;4926385;29;20979;-49
2022/01/19 05:46:11;;;;;;;3.60;3.30;;;5.80;78.30;;;;;;4922100;29;20465;-48
2022/01/19 05:48:38;;;;;;;4.33;3.93;;;5.80;78.40;;;;;;4922753;29;20973;-49
2022/01/19 05:51:06;;;;;;;4.57;3.60;;;5.70;78.70;;;;;;4923686;29;20871;-49
2022/01/19 05:53:32;;;;;;;5.33;3.97;;;5.70;78.70;;;;;;4926258;29;20464;-48
2022/01/19 05:56:00;;;;;;;4.63;3.47;;;5.70;78.70;;;;;;4919591;29;20514;-48
2022/01/19 05:58:27;;;;;;;4.43;3.50;;;5.70;78.80;;;;;;4927056;29;20460;-48
2022/01/19 06:00:54;;;;;;;5.07;3.90;;;5.70;78.70;;;;;;4919361;29;20468;-49
2022/01/19 06:03:21;;;;;;;3.90;3.43;;;5.70;78.80;;;;;;4921948;29;20524;-48
2022/01/19 06:05:48;;;;;;;5.83;4.00;;;5.60;79.00;;;;;;4911631;29;20463;-48
2022/01/19 06:10:45;;;;;;;3.10;2.80;;;5.60;79.10;;;;;;4910679;29;20506;-49
2022/01/19 06:13:14;;;;;;;4.20;3.60;;;5.60;79.40;;;;;;4922762;29;20464;-48
2022/01/19 06:15:42;;;;;;;4.60;4.20;;;5.60;79.40;;;;;;4924757;29;20494;-48
2022/01/19 06:18:09;;;;;;;4.87;3.83;;;5.70;79.40;;;;;;4922068;29;20563;-50
2022/01/19 06:20:39;;;;;;;5.30;3.73;;;5.70;79.30;;;;;;4922158;29;20457;-49
2022/01/19 06:23:05;;;;;;;6.27;4.50;;;5.70;78.90;;;;;;4921013;29;20476;-51
2022/01/19 06:25:32;;;;;;;6.50;4.87;;;5.70;78.70;;;;;;4922854;29;21014;-51
2022/01/19 06:27:59;;;;;;;4.50;4.10;;;5.70;78.90;;;;;;4922134;29;20475;-47
2022/01/19 06:30:26;;;;;;;9.27;4.70;;;5.70;79.00;;;;;;4922959;29;20467;-47
2022/01/19 06:32:53;;;;;;;5.60;4.80;;;5.70;79.10;;;;;;4934189;28;20839;-47
2022/01/19 06:35:20;;;;;;;4.47;4.07;;;5.70;79.00;;;;;;4926570;29;20494;-49
2022/01/19 06:37:49;;;;;;;6.80;4.80;;;5.70;79.00;;;;;;4927112;29;20796;-50
2022/01/19 06:40:21;;;;;;;7.20;4.87;;;5.60;79.10;;;;;;4913859;29;20459;-50
2022/01/19 06:42:47;;;;;;;8.33;4.97;;;5.60;79.00;;;;;;4912362;29;20552;-50
2022/01/19 06:45:14;;;;;;;5.17;4.67;;;5.70;78.70;;;;;;4925674;29;20463;-49
2022/01/19 06:47:41;;;;;;;7.70;5.10;;;5.60;78.80;;;;;;4926784;29;20472;-48
2022/01/19 06:50:10;;;;;;;6.47;5.77;;;5.60;79.10;;;;;;4927126;29;20983;-48
2022/01/19 06:52:38;;;;;;;6.20;5.13;;;5.60;79.10;;;;;;4922740;29;20471;-48
2022/01/19 06:55:06;;;;;;;5.90;5.27;;;5.60;79.00;;;;;;4924186;29;20488;-51
2022/01/19 06:57:33;;;;;;;10.13;5.53;;;5.60;79.00;;;;;;4922411;29;20467;-51
2022/01/19 07:00:00;;;;;;;8.17;7.47;;;5.60;79.00;;;;;;4933246;28;20682;-51
2022/01/19 07:02:32;;;;;;;6.27;5.60;;;5.50;78.90;;;;;;4926419;29;20477;-51
2022/01/19 07:05:00;;;;;;;8.33;5.77;;;5.50;78.90;;;;;;4923860;29;20459;-51
2022/01/19 07:07:27;;;;;;;9.20;6.63;;;5.50;79.00;;;;;;4923448;29;20468;-51
2022/01/19 07:09:55;;;;;;;9.77;7.10;;;5.40;78.90;;;;;;4911890;29;20460;-51
2022/01/19 07:12:26;;;;;;;9.27;6.60;;;5.40;78.90;;;;;;4917602;29;20481;-51
2022/01/19 07:14:52;;;;;;;8.93;6.10;;;5.40;78.70;;;;;;4916059;29;20484;-51
2022/01/19 07:17:20;;;;;;;8.90;6.90;;;5.30;78.50;;;;;;4921621;29;20459;-51
2022/01/19 07:19:47;;;;;;;11.33;7.90;;;5.20;78.80;;;;;;4923604;29;20962;-51
2022/01/19 07:24:47;;;;;;;8.50;7.50;;;5.10;78.80;;;;;;4921122;29;20489;-49
2022/01/19 07:27:14;;;;;;;7.40;6.33;;;5.10;78.90;;;;;;4922984;29;20467;-49
2022/01/19 07:29:40;;;;;;;6.80;6.13;;;5.10;79.10;;;;;;4923263;29;20471;-49
2022/01/19 07:32:09;;;;;;;8.47;7.60;;;5.00;79.20;;;;;;4923432;29;20452;-50
2022/01/19 07:34:37;;;;;;;7.60;6.60;;;5.00;79.10;;;;;;4922139;29;20469;-49
2022/01/19 07:37:04;;;;;;;7.33;6.33;;;5.00;79.20;;;;;;4925358;29;20547;-49
2022/01/19 07:39:31;;;;;;;10.37;6.00;;;5.00;79.40;;;;;;4925594;29;20476;-49
2022/01/19 07:41:58;;;;;;;9.33;6.90;;;4.90;79.60;;;;;;4930997;29;20448;-50
2022/01/19 07:44:25;;;;;;;11.60;7.50;;;4.90;79.70;;;;;;4929210;29;20961;-50
2022/01/19 07:46:52;;;;;;;8.03;6.50;;;4.90;79.70;;;;;;4928346;29;20837;-50
2022/01/19 07:49:19;;;;;;;11.23;7.00;;;4.90;79.50;;;;;;4925472;29;20461;-48
2022/01/19 07:51:46;;;;;;;8.97;7.40;;;4.90;79.60;;;;;;4916126;29;20462;-50
2022/01/19 07:54:14;;;;;;;11.10;8.20;;;4.90;79.60;;;;;;4930209;29;20880;-50
2022/01/19 07:56:41;;;;;;;11.87;7.93;;;4.80;79.70;;;;;;4929795;29;20520;-48
2022/01/19 07:59:08;;;;;;;12.30;8.43;;;4.90;79.40;;;;;;4928938;29;20467;-48
2022/01/19 08:01:35;;;;;;;12.80;8.53;;;4.90;79.10;;;;;;4926088;29;20468;-48
2022/01/19 08:04:03;;;;;;;9.90;8.07;;;4.90;78.80;;;;;;4940558;28;20493;-49
2022/01/19 08:06:30;;;;;;;12.97;8.70;;;4.90;78.90;;;;;;4914434;29;20547;-49
2022/01/19 08:08:57;;;;;;;10.27;8.40;;;4.80;78.60;;;;;;4911115;29;20989;-49
2022/01/19 08:11:24;;;;;;;11.23;9.57;;;4.90;78.90;;;;;;4927094;29;20452;-49
2022/01/19 08:13:52;;;;;;;11.43;8.40;;;4.90;78.50;;;;;;4924750;29;20515;-48
2022/01/19 08:16:19;;;;;;;12.30;9.03;;;4.90;78.60;;;;;;4926726;29;21031;-48
2022/01/19 08:18:46;;;;;;;12.43;8.53;;;4.90;77.60;;;;;;4931607;29;20487;-48
2022/01/19 08:21:14;;;;;;;12.97;8.70;;;4.90;77.00;;;;;;4928087;29;20463;-50
2022/01/19 08:23:41;;;;;;;9.60;8.20;;;4.80;77.60;;;;;;4942561;28;20487;-49
2022/01/19 08:26:08;;;;;;;15.10;9.47;;;4.80;78.10;;;;;;4933699;28;20452;-50
2022/01/19 08:28:34;;;;;;;11.80;8.13;;;4.80;78.00;;;;;;4949501;28;20455;-50
2022/01/19 08:31:01;;;;;;;14.53;9.40;;;4.80;78.10;;;;;;4945383;28;20478;-49
2022/01/19 08:33:29;;;;;;;13.97;8.87;;;4.80;78.10;;;;;;4929786;28;20821;-49
2022/01/19 08:35:56;;;;;;;13.27;9.37;;;4.90;77.60;;;;;;4948665;28;20497;-49
2022/01/19 08:38:23;;;;;;;11.30;8.30;;;4.90;77.70;;;;;;4926680;28;20956;-49
2022/01/19 08:40:51;;;;;;;15.00;8.50;;;4.90;76.90;;;;;;4924694;29;20962;-48
2022/01/19 08:43:18;;;;;;;11.57;8.50;;;4.90;76.70;;;;;;4943978;28;20448;-48
2022/01/19 08:45:45;;;;;;;15.33;9.63;;;4.80;77.30;;;;;;4946817;28;20466;-48
2022/01/19 08:48:13;;;;;;;12.23;8.40;;;4.80;77.70;;;;;;4924390;29;20455;-51
2022/01/19 08:50:40;;;;;;;12.13;8.73;;;4.80;77.40;;;;;;4941733;28;20515;-52
2022/01/19 08:53:07;;;;;;;9.63;8.30;;;4.80;77.70;;;;;;4948042;28;20830;-49
2022/01/19 08:55:35;;;;;;;14.47;9.17;;;4.80;78.00;;;;;;4941188;28;20499;-47
2022/01/19 08:58:03;;;;;;;12.70;8.70;;;4.70;77.60;;;;;;4945047;28;20759;-49
2022/01/19 09:00:30;;;;;;;12.53;8.30;;;4.80;77.60;;;;;;4943639;28;20555;-48
2022/01/19 09:03:00;;;;;;;12.93;8.50;;;4.80;77.60;;;;;;4943517;28;21041;-48
2022/01/19 09:05:27;;;;;;;14.80;10.77;;;4.80;77.80;;;;;;4942217;28;20554;-49
2022/01/19 09:07:53;;;;;;;13.70;9.13;;;4.80;77.80;;;;;;4932100;29;20455;-49
2022/01/19 09:10:22;;;;;;;11.07;8.90;;;4.90;77.50;;;;;;4955239;28;20473;-48
2022/01/19 09:12:48;;;;;;;14.80;9.50;;;4.90;77.70;;;;;;4930335;28;20451;-48
2022/01/19 09:15:17;;;;;;;15.50;8.20;;;4.90;77.50;;;;;;4960714;28;21007;-47
2022/01/19 09:17:45;;;;;;;13.90;9.00;;;4.90;77.70;;;;;;4931871;28;20979;-47
2022/01/19 09:20:14;;;;;;;13.30;9.87;;;4.90;77.40;;;;;;4932733;29;20949;-48
2022/01/19 09:22:42;;;;;;;13.27;9.50;;;4.90;77.60;;;;;;4933951;28;20586;-49
2022/01/19 09:25:11;;;;;;;12.53;9.20;;;5.00;77.90;;;;;;4945177;28;20773;-48
2022/01/19 09:27:39;;;;;;;14.30;10.00;;;5.00;77.30;;;;;;4932770;28;20455;-47
2022/01/19 09:30:14;;;;;;;14.10;9.67;;;5.00;76.90;;;;;;4942482;28;20458;-48
2022/01/19 09:32:45;;;;;;;13.20;9.50;;;5.00;77.40;;;;;;4940875;28;21121;-48
2022/01/19 09:35:22;;;;;;;16.63;10.10;;;5.10;77.30;;;;;;4944606;28;20507;-48
2022/01/19 09:37:49;;;;;;;12.77;10.20;;;5.20;77.60;;;;;;4942960;28;20465;-47
2022/01/19 09:40:28;;;;;;;16.00;9.47;;;5.30;76.90;;;;;;4930289;28;20462;-47
2022/01/19 09:43:07;;;;;;;14.10;9.80;;;5.40;77.00;;;;;;4940974;28;20455;-48
2022/01/19 09:45:34;;;;;;;13.10;10.07;;;5.40;76.50;;;;;;4932348;29;20632;-48
2022/01/19 09:48:01;;;;;;;12.07;9.80;;;5.50;76.80;;;;;;4942504;28;20459;-48
2022/01/19 09:50:28;;;;;;;12.90;9.60;;;5.50;76.00;;;;;;4926237;28;20464;-48
2022/01/19 09:52:55;;;;;;;15.03;9.80;;;5.60;75.80;;;;;;4943420;28;20451;-48
2022/01/19 09:55:22;;;;;;;12.40;10.77;;;5.60;76.00;;;;;;4895930;29;20964;-48
2022/01/19 09:57:49;;;;;;;17.33;10.57;;;5.60;76.00;;;;;;4943761;28;20464;-48
2022/01/19 10:00:16;;;;;;;16.17;11.43;;;5.50;75.90;;;;;;4925610;28;20452;-48
2022/01/19 10:03:12;;;;;;;12.50;8.70;;;5.50;76.00;;;;;;4939516;28;20466;-48
2022/01/19 10:06:05;;;;;;;16.40;9.77;;;5.50;76.10;;;;;;4943539;28;20554;-48
2022/01/19 10:08:34;;;;;;;15.30;9.93;;;5.50;75.50;;;;;;4922898;29;20492;-48
2022/01/19 10:11:14;;;;;;;16.73;9.70;;;5.60;75.50;;;;;;4940158;28;20490;-48
2022/01/19 10:17:10;;;;;;;13.83;9.30;;;5.60;75.80;;;;;;4939387;28;20496;-48
2022/01/19 10:19:49;;;;;;;13.13;9.30;;;5.60;75.50;;;;;;4942175;28;20960;-47
2022/01/19 10:22:18;;;;;;;10.87;8.60;;;5.60;75.50;;;;;;4945859;28;20510;-48
2022/01/19 10:24:48;;;;;;;13.07;9.23;;;5.60;75.00;;;;;;4928503;28;20549;-48
2022/01/19 10:27:23;;;;;;;19.50;10.30;;;5.60;75.70;;;;;;4921136;29;20964;-48
2022/01/19 10:29:53;;;;;;;13.77;9.43;;;5.60;76.60;;;;;;4940226;28;20465;-48
2022/01/19 10:32:24;;;;;;;12.63;8.80;;;5.60;76.40;;;;;;4915455;29;20806;-48
2022/01/19 10:34:52;;;;;;;12.40;8.80;;;5.60;75.60;;;;;;4958227;28;20502;-48
2022/01/19 10:37:27;;;;;;;16.87;9.70;;;5.60;75.80;;;;;;4941652;28;20578;-48
2022/01/19 10:39:57;;;;;;;11.57;9.20;;;5.60;75.30;;;;;;4939678;28;20462;-48
2022/01/19 10:42:29;;;;;;;11.47;9.00;;;5.50;75.50;;;;;;4942454;28;20464;-48
2022/01/19 10:45:05;;;;;;;12.10;7.90;;;5.50;76.10;;;;;;4932292;28;20479;-48
2022/01/19 10:47:53;;;;;;;11.70;8.43;;;5.40;75.80;;;;;;4917941;28;20791;-48
2022/01/19 10:50:22;;;;;;;12.00;8.90;;;5.40;76.60;;;;;;4942877;28;20477;-48
2022/01/19 10:52:50;;;;;;;11.13;8.70;;;5.30;77.20;;;;;;4941796;28;20471;-47
2022/01/19 10:55:19;;;;;;;14.37;8.87;;;5.30;76.60;;;;;;4926493;28;20978;-47
2022/01/19 10:57:48;;;;;;;13.33;9.37;;;5.30;77.60;;;;;;4955205;28;20491;-48
2022/01/19 11:00:16;;;;;;;16.20;9.73;;;5.30;77.80;;;;;;4929234;29;20456;-48
2022/01/19 11:02:47;;;;;;;12.90;9.23;;;5.30;77.30;;;;;;4942295;28;20455;-48
2022/01/19 11:05:15;;;;;;;14.20;9.60;;;5.30;77.60;;;;;;4924399;28;20914;-48
2022/01/19 11:07:43;;;;;;;11.60;8.20;;;5.30;77.60;;;;;;4936905;28;21551;-47
2022/01/19 11:10:18;;;;;;;13.97;9.87;;;5.30;77.20;;;;;;4924840;29;20468;-48
2022/01/19 11:12:47;;;;;;;11.20;8.37;;;5.30;77.00;;;;;;4943310;28;20458;-47
2022/01/19 11:15:18;;;;;;;12.37;10.47;;;5.20;77.20;;;;;;4949258;28;20501;-48
2022/01/19 11:17:47;;;;;;;9.73;7.73;;;5.30;77.70;;;;;;4929085;28;20954;-47
2022/01/19 11:20:16;;;;;;;14.50;10.00;;;5.20;77.30;;;;;;4936533;28;20450;-48
2022/01/19 11:23:08;;;;;;;15.03;10.90;;;5.20;78.20;;;;;;4931114;28;21073;-48
2022/01/19 11:26:00;;;;;;;15.57;12.03;;;5.20;78.20;;;;;;4959872;28;20455;-48
2022/01/19 11:28:40;;;;;;;18.37;12.33;;;5.10;78.20;;;;;;4961258;28;20479;-48
2022/01/19 11:31:34;;;;;;;17.17;11.70;;;5.10;78.70;;;;;;4945632;28;20463;-48
2022/01/19 11:34:01;;;;;;;21.43;13.40;;;5.10;78.10;;;;;;4943125;28;20853;-48
2022/01/19 11:36:39;;;;;;;19.30;13.27;;;5.00;78.70;;;;;;4931718;29;21019;-52
2022/01/19 11:39:19;;;;;;;17.37;12.10;;;5.00;79.00;;;;;;4945612;28;20459;-51
2022/01/19 11:41:56;;;;;;;21.40;13.07;;;5.00;79.40;;;;;;4945222;28;20471;-51
2022/01/19 11:44:32;;;;;;;17.37;11.73;;;5.00;79.10;;;;;;4941380;28;20466;-52
2022/01/19 11:47:19;;;;;;;19.77;12.90;;;5.00;78.50;;;;;;4929264;28;20466;-52
2022/01/19 11:49:54;;;;;;;21.47;14.10;;;4.90;79.40;;;;;;4911957;28;20471;-51
2022/01/19 11:52:26;;;;;;;19.43;13.70;;;4.90;80.00;;;;;;4949421;28;20551;-51
2022/01/19 11:55:09;;;;;;;22.87;14.97;;;4.80;80.60;;;;;;4946315;28;20469;-51
2022/01/19 11:57:36;;;;;;;21.37;12.40;;;4.80;80.40;;;;;;4933135;28;20520;-52
2022/01/19 12:00:08;;;;;;;22.97;13.50;;;4.80;80.90;;;;;;4925607;28;20459;-51
2022/01/19 12:02:38;;;;;;;23.20;14.50;;;4.70;81.50;;;;;;4946260;28;20908;-51
2022/01/19 12:05:35;;;;;;;25.07;14.60;;;4.80;81.30;;;;;;4944734;28;20456;-51
2022/01/19 12:08:20;;;;;;;22.77;14.90;;;4.80;81.00;;;;;;4924506;28;20468;-52
2022/01/19 12:10:56;;;;;;;26.07;16.17;;;4.80;81.00;;;;;;4951111;28;21018;-52
2022/01/19 12:16:11;;;;;;;27.43;15.00;;;4.70;81.50;;;;;;4928547;28;20473;-52
2022/01/19 12:18:45;;;;;;;30.47;17.20;;;4.70;82.30;;;;;;4943844;28;20475;-51
2022/01/19 12:21:34;;;;;;;28.50;14.40;;;4.60;82.50;;;;;;4926573;28;21021;-51
2022/01/19 12:24:30;;;;;;;26.93;15.30;;;4.60;82.40;;;;;;4939422;28;20489;-51
2022/01/19 12:27:07;;;;;;;22.27;12.87;;;4.60;82.40;;;;;;4927812;28;21045;-51
2022/01/19 12:29:36;;;;;;;22.57;13.40;;;4.60;82.40;;;;;;4948096;28;20468;-51
2022/01/19 12:32:06;;;;;;;25.97;13.67;;;4.60;81.80;;;;;;4943939;28;20498;-51
2022/01/19 12:34:43;;;;;;;23.37;13.07;;;4.50;82.20;;;;;;4945093;28;20562;-51
2022/01/19 12:37:12;;;;;;;21.57;13.03;;;4.50;83.00;;;;;;4929492;28;21691;-50
2022/01/19 12:39:41;;;;;;;23.23;13.83;;;4.50;82.30;;;;;;4948811;28;21848;-50
2022/01/19 12:42:20;;;;;;;25.20;14.80;;;4.50;82.70;;;;;;4927316;28;20490;-50
2022/01/19 12:44:54;;;;;;;19.10;11.90;;;4.50;82.10;;;;;;4929642;28;20462;-52
2022/01/19 12:47:24;;;;;;;19.63;12.77;;;4.50;82.60;;;;;;4914372;28;20475;-52
2022/01/19 12:50:18;;;;;;;18.67;11.70;;;4.50;82.60;;;;;;4947292;28;20456;-52
2022/01/19 12:52:54;;;;;;;16.83;11.53;;;4.40;82.20;;;;;;4947492;28;20459;-51
2022/01/19 12:55:29;;;;;;;24.10;12.63;;;4.40;82.30;;;;;;4933200;28;20490;-51
2022/01/19 12:57:58;;;;;;;21.60;11.07;;;4.40;82.50;;;;;;4914776;28;20994;-52
2022/01/19 13:00:30;;;;;;;18.37;11.70;;;4.40;82.40;;;;;;4929267;28;20522;-52
2022/01/19 13:02:58;;;;;;;18.10;11.30;;;4.40;82.60;;;;;;4945372;28;21086;-51
2022/01/19 13:05:29;;;;;;;20.43;12.10;;;4.40;82.60;;;;;;4944201;28;20463;-52
2022/01/19 13:08:01;;;;;;;18.83;11.80;;;4.40;82.50;;;;;;4943426;28;20469;-51
2022/01/19 13:10:49;;;;;;;19.17;11.70;;;4.40;82.40;;;;;;4944665;28;20473;-52
2022/01/19 13:13:27;;;;;;;18.97;11.50;;;4.40;82.80;;;;;;4946113;28;20451;-52
2022/01/19 13:16:00;;;;;;;21.73;11.97;;;4.40;82.90;;;;;;4939833;28;20551;-52
2022/01/19 13:18:38;;;;;;;19.53;11.80;;;4.40;83.00;;;;;;4924798;28;21250;-52
2022/01/19 13:21:12;;;;;;;19.03;11.00;;;4.30;83.60;;;;;;4947254;28;20456;-51
2022/01/19 13:24:00;;;;;;;19.23;11.73;;;4.30;84.10;;;;;;4945527;28;20525;-51
2022/01/19 13:26:43;;;;;;;24.20;11.73;;;4.30;84.00;;;;;;4944037;28;20545;-52
2022/01/19 13:29:26;;;;;;;14.80;10.10;;;4.30;84.70;;;;;;4929033;28;20454;-52
2022/01/19 13:31:59;;;;;;;19.63;11.40;;;4.40;84.20;;;;;;4942252;28;20896;-52
2022/01/19 13:34:27;;;;;;;17.60;11.40;;;4.40;84.80;;;;;;4927821;28;20459;-52
2022/01/19 13:37:02;;;;;;;19.30;11.30;;;4.40;85.10;;;;;;4946991;28;21034;-51
2022/01/19 13:39:32;;;;;;;17.30;10.70;;;4.40;85.10;;;;;;4931565;28;20458;-51
2022/01/19 13:42:01;;;;;;;17.00;10.03;;;4.30;85.50;;;;;;4941255;28;20467;-51
2022/01/19 13:44:33;;;;;;;18.40;12.90;;;4.30;85.80;;;;;;4942990;28;20467;-51
2022/01/19 13:47:24;;;;;;;15.10;10.57;;;4.30;86.10;;;;;;4905437;29;20692;-51
2022/01/19 13:49:53;;;;;;;14.53;10.60;;;4.40;86.40;;;;;;4923476;29;20463;-51
2022/01/19 13:52:24;;;;;;;17.20;10.80;;;4.40;85.80;;;;;;4928608;28;20982;-51
2022/01/19 13:54:52;;;;;;;17.60;10.93;;;4.40;85.70;;;;;;4930806;28;20555;-51
2022/01/19 13:57:26;;;;;;;18.70;11.27;;;4.40;86.20;;;;;;4944841;28;20508;-50
2022/01/19 13:59:54;;;;;;;20.40;11.27;;;4.40;86.60;;;;;;4927169;28;20461;-51
2022/01/19 14:02:21;;;;;;;18.13;10.80;;;4.40;86.70;;;;;;4925524;29;20486;-51
2022/01/19 14:04:53;;;;;;;15.50;9.20;;;4.40;86.80;;;;;;4940944;28;21032;-51
2022/01/19 14:07:20;;;;;;;17.33;10.63;;;4.40;86.80;;;;;;4938807;28;20463;-51
2022/01/19 14:10:14;;;;;;;13.40;9.93;;;4.40;86.60;;;;;;4928882;28;20518;-51
2022/01/19 14:12:41;;;;;;;11.87;8.73;;;4.40;86.70;;;;;;4940404;28;21011;-51
2022/01/19 14:15:11;;;;;;;14.20;9.73;;;4.30;86.70;;;;;;4927228;28;20474;-51
2022/01/19 14:17:40;;;;;;;13.07;9.83;;;4.30;86.70;;;;;;4945489;28;20491;-51
2022/01/19 14:20:21;;;;;;;12.70;9.10;;;4.30;87.00;;;;;;4942390;28;20498;-51
2022/01/19 14:22:49;;;;;;;15.90;9.97;;;4.30;87.00;;;;;;4922793;28;20494;-51
2022/01/19 14:25:17;;;;;;;12.20;8.67;;;4.30;86.90;;;;;;4923161;29;20472;-51
2022/01/19 14:27:52;;;;;;;16.27;10.07;;;4.30;86.90;;;;;;4942867;28;20470;-52
2022/01/19 14:30:28;;;;;;;13.10;9.03;;;4.30;87.10;;;;;;4942241;28;20467;-51
2022/01/19 14:32:56;;;;;;;15.67;10.20;;;4.30;87.30;;;;;;4941326;28;20459;-51
2022/01/19 14:35:29;;;;;;;19.13;10.10;;;4.30;87.20;;;;;;4924478;28;20554;-48
2022/01/19 14:38:01;;;;;;;12.63;9.90;;;4.30;87.30;;;;;;4925995;29;20578;-49
2022/01/19 14:40:29;;;;;;;11.70;8.33;;;4.30;87.30;;;;;;4924732;29;20456;-48